Airfield :
LOGIN :

Register | Disclaimer

   EN    FR    IT 

 










Legend :    VFR   Marginal VFR   IFR   Intensive IFR   Very Intensive IFR
Visi :
Ceiling :
>= 8 km
>= 3000ft
5 to 8 km
1000 to 3000 ft
1500m to 5 km
500 to 1000 ft
800 to 1500m
200 to 500 ft
< 800m
< 200 ft
Symbols :   Thunderstorms  Fog  Heavy snow  Heavy precipitations  Wind > 20 kt
SIGMETs :     Misc.  Thunderstorms  Icing  Turbulence  Mountain Waves  Volcanic Ashes







- Airport Elevation : 459 ft
- IATA code : CER
- Download approach charts


LFRC - Cherbourg / Maupertus

CURRENT METAR :
  • 202100Z AUTO 30017KT 280V340 9999 SCT022 BKN027 OVC036 09/06 Q1008

EXPIRED METARs :
  • 202030Z AUTO 30020KT 9999 SCT025 OVC034 10/06 Q1007
  • 202000Z AUTO 29020KT 9999 SCT025 OVC043 09/06 Q1006
  • 201930Z AUTO 30019KT 9999 FEW021 BKN027 BKN033 10/06 Q1006
  • 201900Z AUTO 30019KT 9999 SCT027 SCT033 BKN041 10/07 Q1005 TEMPO 4000 RADZ BKN004 BECMG 28020G30KT
  • 201830Z AUTO 30019KT 9999 FEW010 SCT018 OVC026 10/08 Q1004 TEMPO 4000 RADZ BKN004 BECMG 28020G30KT
  • 201800Z AUTO 29020KT 8000 FEW006 SCT013 BKN021 10/09 Q1003 TEMPO 4000 RADZ BKN004 BECMG 28020G30KT

TAF AMD TAF LFRC
Valid from the 20 at 15:00 until the 21 at 00:00 UTC


201546Z 2015/2024 28020G30KT 9999 BKN015
TEMPO 2015/2024 4000 RADZ BKN004
BECMG 2022/2024 32015KT
No reported NOTAMs for that airfield.
1 SIGMET reported for the Brest FIR (LFRR) :
 
Severe turbulence
LFRR SIGMET 5 VALID 201800/202200 LFPW
LFRR BREST FIR/UIR SEV TURB FCST SE OF LINE N4615 W00130 - N4415 W00445 SFC/FL040 STNR NC=



MET'MAP, your aeronautical weather chart ! - Copyright ORBIFLY December 2007 - Disclaimer

ORBIFLY MET'MAP TEAM :

Programming & Development : Alexandra Zaïnal
Concept & Development : Baudouin d'Aumeries
Co-Development & Prog : Marc-Olivier Méhu
Technical & hardware support : Manuel Goepfert

Contact : metmap@orbifly.com




SOURCES & CREDITS :

   NOAA